sensor_id;sensor_type;location;lat;lon;timestamp;pressure;altitude;pressure_sealevel;temperature;humidity
22605;BME280;11469;49.024;8.246;2023-04-07T00:00:57;100425.00;;;8.03;100.00
22605;BME280;11469;49.024;8.246;2023-04-07T00:03:23;100420.22;;;8.04;100.00
22605;BME280;11469;49.024;8.246;2023-04-07T00:05:48;100421.84;;;8.05;100.00
22605;BME280;11469;49.024;8.246;2023-04-07T00:08:14;100415.09;;;8.06;100.00
22605;BME280;11469;49.024;8.246;2023-04-07T00:10:39;100418.22;;;8.04;100.00
22605;BME280;11469;49.024;8.246;2023-04-07T00:13:05;100412.75;;;7.95;100.00
22605;BME280;11469;49.024;8.246;2023-04-07T00:15:30;100407.94;;;7.84;100.00
22605;BME280;11469;49.024;8.246;2023-04-07T00:17:56;100400.59;;;7.79;100.00
22605;BME280;11469;49.024;8.246;2023-04-07T00:20:21;100399.94;;;7.82;100.00
22605;BME280;11469;49.024;8.246;2023-04-07T00:22:47;100401.44;;;7.80;100.00
22605;BME280;11469;49.024;8.246;2023-04-07T00:25:12;100399.78;;;7.79;100.00
22605;BME280;11469;49.024;8.246;2023-04-07T00:27:38;100391.41;;;7.79;100.00
22605;BME280;11469;49.024;8.246;2023-04-07T00:30:04;100392.56;;;7.78;100.00
22605;BME280;11469;49.024;8.246;2023-04-07T00:32:29;100389.78;;;7.78;100.00
22605;BME280;11469;49.024;8.246;2023-04-07T00:34:55;100385.50;;;7.80;100.00
22605;BME280;11469;49.024;8.246;2023-04-07T00:37:20;100387.81;;;7.78;100.00
22605;BME280;11469;49.024;8.246;2023-04-07T00:39:46;100385.03;;;7.78;100.00
22605;BME280;11469;49.024;8.246;2023-04-07T00:42:11;100375.97;;;7.81;100.00
22605;BME280;11469;49.024;8.246;2023-04-07T00:44:37;100375.16;;;7.81;100.00
22605;BME280;11469;49.024;8.246;2023-04-07T00:47:02;100379.31;;;7.75;100.00
22605;BME280;11469;49.024;8.246;2023-04-07T00:49:28;100372.09;;;7.74;100.00
22605;BME280;11469;49.024;8.246;2023-04-07T00:51:57;100369.66;;;7.72;100.00
22605;BME280;11469;49.024;8.246;2023-04-07T00:54:23;100363.47;;;7.66;100.00
22605;BME280;11469;49.024;8.246;2023-04-07T00:56:49;100365.44;;;7.66;100.00
22605;BME280;11469;49.024;8.246;2023-04-07T00:59:15;100362.66;;;7.66;100.00
22605;BME280;11469;49.024;8.246;2023-04-07T01:01:52;100355.44;;;7.65;100.00
22605;BME280;11469;49.024;8.246;2023-04-07T01:04:32;100354.97;;;7.63;100.00
22605;BME280;11469;49.024;8.246;2023-04-07T01:07:03;100348.25;;;7.64;100.00
22605;BME280;11469;49.024;8.246;2023-04-07T01:09:36;100347.41;;;7.63;100.00
22605;BME280;11469;49.024;8.246;2023-04-07T01:12:07;100340.91;;;7.59;100.00
22605;BME280;11469;49.024;8.246;2023-04-07T01:14:39;100337.41;;;7.50;100.00
22605;BME280;11469;49.024;8.246;2023-04-07T01:17:06;100344.47;;;7.48;100.00
22605;BME280;11469;49.024;8.246;2023-04-07T01:19:48;100339.72;;;7.48;100.00
22605;BME280;11469;49.024;8.246;2023-04-07T01:22:23;100334.94;;;7.49;100.00
22605;BME280;11469;49.024;8.246;2023-04-07T01:30:09;100328.28;;;7.41;100.00
22605;BME280;11469;49.024;8.246;2023-04-07T01:32:36;100328.28;;;7.41;100.00
22605;BME280;11469;49.024;8.246;2023-04-07T01:35:04;100326.66;;;7.40;100.00
22605;BME280;11469;49.024;8.246;2023-04-07T01:37:31;100325.84;;;7.40;100.00
22605;BME280;11469;49.024;8.246;2023-04-07T01:39:56;100334.09;;;7.36;100.00
22605;BME280;11469;49.024;8.246;2023-04-07T01:42:22;100334.28;;;7.31;100.00
22605;BME280;11469;49.024;8.246;2023-04-07T01:44:51;100329.19;;;7.33;100.00
22605;BME280;11469;49.024;8.246;2023-04-07T01:47:17;100332.19;;;7.28;100.00
22605;BME280;11469;49.024;8.246;2023-04-07T01:49:44;100326.59;;;7.28;100.00
22605;BME280;11469;49.024;8.246;2023-04-07T01:52:11;100321.72;;;7.25;100.00
22605;BME280;11469;49.024;8.246;2023-04-07T01:54:37;100322.25;;;7.18;100.00
22605;BME280;11469;49.024;8.246;2023-04-07T01:57:03;100323.75;;;7.16;100.00
22605;BME280;11469;49.024;8.246;2023-04-07T01:59:29;100322.94;;;7.15;100.00
22605;BME280;11469;49.024;8.246;2023-04-07T02:01:54;100325.94;;;7.10;100.00
22605;BME280;11469;49.024;8.246;2023-04-07T02:04:31;100322.69;;;7.08;100.00
22605;BME280;11469;49.024;8.246;2023-04-07T02:07:02;100320.72;;;7.09;100.00
22605;BME280;11469;49.024;8.246;2023-04-07T02:09:31;100314.78;;;7.10;100.00
22605;BME280;11469;49.024;8.246;2023-04-07T02:11:59;100311.53;;;7.08;100.00
22605;BME280;11469;49.024;8.246;2023-04-07T02:14:26;100310.13;;;7.02;100.00
22605;BME280;11469;49.024;8.246;2023-04-07T02:16:52;100303.25;;;6.99;100.00
22605;BME280;11469;49.024;8.246;2023-04-07T02:19:18;100302.44;;;6.99;100.00
22605;BME280;11469;49.024;8.246;2023-04-07T02:21:45;100306.44;;;6.89;100.00
22605;BME280;11469;49.024;8.246;2023-04-07T02:24:11;100313.69;;;6.82;100.00
22605;BME280;11469;49.024;8.246;2023-04-07T02:26:37;100304.88;;;6.80;100.00
22605;BME280;11469;49.024;8.246;2023-04-07T02:29:03;100301.47;;;6.74;100.00
22605;BME280;11469;49.024;8.246;2023-04-07T02:31:28;100305.75;;;6.72;100.00
22605;BME280;11469;49.024;8.246;2023-04-07T02:33:54;100285.44;;;6.71;100.00
22605;BME280;11469;49.024;8.246;2023-04-07T02:36:20;100284.28;;;6.72;100.00
22605;BME280;11469;49.024;8.246;2023-04-07T02:38:45;100288.34;;;6.75;100.00
22605;BME280;11469;49.024;8.246;2023-04-07T02:41:10;100296.44;;;6.68;100.00
22605;BME280;11469;49.024;8.246;2023-04-07T02:43:36;100293.31;;;6.69;100.00
22605;BME280;11469;49.024;8.246;2023-04-07T02:46:01;100286.59;;;6.70;100.00
22605;BME280;11469;49.024;8.246;2023-04-07T02:48:26;100300.72;;;6.65;100.00
22605;BME280;11469;49.024;8.246;2023-04-07T02:50:52;100304.97;;;6.62;100.00
22605;BME280;11469;49.024;8.246;2023-04-07T02:53:17;100305.34;;;6.61;100.00
22605;BME280;11469;49.024;8.246;2023-04-07T02:55:42;100301.84;;;6.64;100.00
22605;BME280;11469;49.024;8.246;2023-04-07T02:58:08;100297.81;;;6.61;100.00
22605;BME280;11469;49.024;8.246;2023-04-07T03:00:33;100290.13;;;6.58;100.00
22605;BME280;11469;49.024;8.246;2023-04-07T03:02:59;100294.31;;;6.64;100.00
22605;BME280;11469;49.024;8.246;2023-04-07T03:05:24;100295.94;;;6.65;100.00
22605;BME280;11469;49.024;8.246;2023-04-07T03:07:49;100295.47;;;6.63;100.00
22605;BME280;11469;49.024;8.246;2023-04-07T03:10:15;100285.03;;;6.60;100.00
22605;BME280;11469;49.024;8.246;2023-04-07T03:12:40;100277.50;;;6.61;100.00
22605;BME280;11469;49.024;8.246;2023-04-07T03:15:06;100282.03;;;6.65;100.00
22605;BME280;11469;49.024;8.246;2023-04-07T03:17:32;100273.28;;;6.55;100.00
22605;BME280;11469;49.024;8.246;2023-04-07T03:19:57;100270.16;;;6.56;100.00
22605;BME280;11469;49.024;8.246;2023-04-07T03:22:23;100266.06;;;6.54;100.00
22605;BME280;11469;49.024;8.246;2023-04-07T03:24:48;100264.78;;;6.51;100.00
22605;BME280;11469;49.024;8.246;2023-04-07T03:27:14;100274.44;;;6.54;100.00
22605;BME280;11469;49.024;8.246;2023-04-07T03:29:41;100269.06;;;6.49;100.00
22605;BME280;11469;49.024;8.246;2023-04-07T03:32:07;100264.50;;;6.44;100.00
22605;BME280;11469;49.024;8.246;2023-04-07T03:34:33;100266.81;;;6.42;100.00
22605;BME280;11469;49.024;8.246;2023-04-07T03:36:58;100259.75;;;6.45;100.00
22605;BME280;11469;49.024;8.246;2023-04-07T03:39:25;100254.50;;;6.43;100.00
22605;BME280;11469;49.024;8.246;2023-04-07T03:41:50;100247.47;;;6.46;100.00
22605;BME280;11469;49.024;8.246;2023-04-07T03:44:16;100250.59;;;6.44;100.00
22605;BME280;11469;49.024;8.246;2023-04-07T03:46:41;100248.13;;;6.43;100.00
22605;BME280;11469;49.024;8.246;2023-04-07T03:49:07;100251.13;;;6.38;100.00
22605;BME280;11469;49.024;8.246;2023-04-07T03:51:32;100261.63;;;6.32;100.00
22605;BME280;11469;49.024;8.246;2023-04-07T03:53:58;100251.78;;;6.35;100.00
22605;BME280;11469;49.024;8.246;2023-04-07T03:56:24;100258.78;;;6.41;100.00
22605;BME280;11469;49.024;8.246;2023-04-07T03:58:49;100259.94;;;6.40;100.00
22605;BME280;11469;49.024;8.246;2023-04-07T04:01:15;100259.47;;;6.38;100.00
22605;BME280;11469;49.024;8.246;2023-04-07T04:03:41;100262.44;;;6.32;100.00
22605;BME280;11469;49.024;8.246;2023-04-07T04:06:06;100256.88;;;6.32;100.00
22605;BME280;11469;49.024;8.246;2023-04-07T04:08:32;100258.97;;;6.36;100.00
22605;BME280;11469;49.024;8.246;2023-04-07T04:10:57;100258.66;;;6.37;100.00
22605;BME280;11469;49.024;8.246;2023-04-07T04:13:22;100258.31;;;6.39;100.00
22605;BME280;11469;49.024;8.246;2023-04-07T04:15:48;100258.78;;;6.41;100.00
22605;BME280;11469;49.024;8.246;2023-04-07T04:18:13;100248.47;;;6.41;100.00
22605;BME280;11469;49.024;8.246;2023-04-07T04:20:39;100251.41;;;6.45;100.00
22605;BME280;11469;49.024;8.246;2023-04-07T04:23:04;100249.56;;;6.49;100.00
22605;BME280;11469;49.024;8.246;2023-04-07T04:25:29;100246.78;;;6.49;100.00
22605;BME280;11469;49.024;8.246;2023-04-07T04:27:55;100256.09;;;6.53;100.00
22605;BME280;11469;49.024;8.246;2023-04-07T04:30:20;100256.91;;;6.53;100.00
22605;BME280;11469;49.024;8.246;2023-04-07T04:32:46;100263.78;;;6.56;100.00
22605;BME280;11469;49.024;8.246;2023-04-07T04:35:11;100261.47;;;6.58;100.00
22605;BME280;11469;49.024;8.246;2023-04-07T04:37:37;100263.22;;;6.62;100.00
22605;BME280;11469;49.024;8.246;2023-04-07T04:40:02;100262.53;;;6.65;100.00
22605;BME280;11469;49.024;8.246;2023-04-07T04:42:28;100267.91;;;6.71;100.00
22605;BME280;11469;49.024;8.246;2023-04-07T04:44:55;100261.19;;;6.72;100.00
22605;BME280;11469;49.024;8.246;2023-04-07T04:47:21;100259.53;;;6.71;100.00
22605;BME280;11469;49.024;8.246;2023-04-07T04:49:46;100263.16;;;6.71;100.00
22605;BME280;11469;49.024;8.246;2023-04-07T04:52:11;100259.69;;;6.74;100.00
22605;BME280;11469;49.024;8.246;2023-04-07T04:54:37;100268.19;;;6.78;100.00
22605;BME280;11469;49.024;8.246;2023-04-07T04:57:02;100266.69;;;6.80;100.00
22605;BME280;11469;49.024;8.246;2023-04-07T04:59:28;100267.16;;;6.82;100.00
22605;BME280;11469;49.024;8.246;2023-04-07T05:01:53;100259.28;;;6.84;100.00
22605;BME280;11469;49.024;8.246;2023-04-07T05:04:18;100259.75;;;6.86;100.00
22605;BME280;11469;49.024;8.246;2023-04-07T05:06:44;100263.84;;;6.89;100.00
22605;BME280;11469;49.024;8.246;2023-04-07T05:09:09;100268.38;;;6.93;100.00
22605;BME280;11469;49.024;8.246;2023-04-07T05:11:35;100268.88;;;6.95;100.00
22605;BME280;11469;49.024;8.246;2023-04-07T05:14:00;100266.09;;;6.95;100.00
22605;BME280;11469;49.024;8.246;2023-04-07T05:16:26;100264.59;;;6.98;100.00
22605;BME280;11469;49.024;8.246;2023-04-07T05:18:51;100269.81;;;6.99;100.00
22605;BME280;11469;49.024;8.246;2023-04-07T05:21:17;100269.13;;;7.03;100.00
22605;BME280;11469;49.024;8.246;2023-04-07T05:23:44;100269.94;;;7.03;100.00
22605;BME280;11469;49.024;8.246;2023-04-07T05:26:10;100265.66;;;7.06;100.00
22605;BME280;11469;49.024;8.246;2023-04-07T05:28:35;100267.28;;;7.07;100.00
22605;BME280;11469;49.024;8.246;2023-04-07T05:31:01;100267.78;;;7.09;100.00
22605;BME280;11469;49.024;8.246;2023-04-07T05:33:26;100261.00;;;7.10;100.00
22605;BME280;11469;49.024;8.246;2023-04-07T05:35:52;100266.97;;;7.20;100.00
22605;BME280;11469;49.024;8.246;2023-04-07T05:38:17;100272.44;;;7.17;100.00
22605;BME280;11469;49.024;8.246;2023-04-07T05:40:42;100283.09;;;7.15;100.00
22605;BME280;11469;49.024;8.246;2023-04-07T05:43:08;100286.09;;;7.10;100.00
22605;BME280;11469;49.024;8.246;2023-04-07T05:45:33;100290.06;;;7.09;100.00
22605;BME280;11469;49.024;8.246;2023-04-07T05:47:58;100281.22;;;7.07;100.00
22605;BME280;11469;49.024;8.246;2023-04-07T05:50:24;100282.25;;;7.35;100.00
22605;BME280;11469;49.024;8.246;2023-04-07T05:52:49;100282.59;;;7.33;100.00
22605;BME280;11469;49.024;8.246;2023-04-07T05:55:15;100287.03;;;7.35;100.00
22605;BME280;11469;49.024;8.246;2023-04-07T05:57:40;100286.97;;;7.22;100.00
22605;BME280;11469;49.024;8.246;2023-04-07T06:00:06;100280.38;;;7.27;100.00
22605;BME280;11469;49.024;8.246;2023-04-07T06:02:32;100279.56;;;7.26;100.00
22605;BME280;11469;49.024;8.246;2023-04-07T06:04:57;100286.75;;;7.27;100.00
22605;BME280;11469;49.024;8.246;2023-04-07T06:07:23;100281.19;;;7.27;100.00
22605;BME280;11469;49.024;8.246;2023-04-07T06:09:48;100274.59;;;7.32;100.00
22605;BME280;11469;49.024;8.246;2023-04-07T06:12:14;100278.31;;;7.36;100.00
22605;BME280;11469;49.024;8.246;2023-04-07T06:14:41;100279.06;;;7.45;100.00
22605;BME280;11469;49.024;8.246;2023-04-07T06:17:06;100277.69;;;7.51;100.00
22605;BME280;11469;49.024;8.246;2023-04-07T06:19:32;100281.84;;;7.57;100.00
22605;BME280;11469;49.024;8.246;2023-04-07T06:21:57;100278.63;;;7.68;100.00
22605;BME280;11469;49.024;8.246;2023-04-07T06:24:22;100282.34;;;7.72;100.00
22605;BME280;11469;49.024;8.246;2023-04-07T06:26:50;100280.97;;;7.78;100.00
22605;BME280;11469;49.024;8.246;2023-04-07T06:29:15;100283.56;;;7.83;100.00
22605;BME280;11469;49.024;8.246;2023-04-07T06:31:41;100287.06;;;7.92;100.00
22605;BME280;11469;49.024;8.246;2023-04-07T06:34:06;100282.88;;;8.10;100.00
22605;BME280;11469;49.024;8.246;2023-04-07T06:36:32;100283.44;;;8.04;100.00
22605;BME280;11469;49.024;8.246;2023-04-07T06:38:58;100279.84;;;8.15;100.00
22605;BME280;11469;49.024;8.246;2023-04-07T06:41:23;100287.28;;;8.23;100.00
22605;BME280;11469;49.024;8.246;2023-04-07T06:43:49;100291.25;;;8.22;100.00
22605;BME280;11469;49.024;8.246;2023-04-07T06:46:18;100287.06;;;8.28;100.00
22605;BME280;11469;49.024;8.246;2023-04-07T06:48:44;100284.75;;;8.18;100.00
22605;BME280;11469;49.024;8.246;2023-04-07T06:51:10;100279.50;;;8.29;100.00
22605;BME280;11469;49.024;8.246;2023-04-07T06:53:35;100294.28;;;8.54;100.00
22605;BME280;11469;49.024;8.246;2023-04-07T06:56:08;100293.78;;;8.88;100.00
22605;BME280;11469;49.024;8.246;2023-04-07T06:58:35;100286.78;;;9.22;99.20
22605;BME280;11469;49.024;8.246;2023-04-07T07:01:01;100290.91;;;9.41;96.26
22605;BME280;11469;49.024;8.246;2023-04-07T07:03:27;100292.34;;;9.35;92.17
22605;BME280;11469;49.024;8.246;2023-04-07T07:05:59;100295.84;;;9.31;91.68
22605;BME280;11469;49.024;8.246;2023-04-07T07:08:25;100301.44;;;9.31;91.97
22605;BME280;11469;49.024;8.246;2023-04-07T07:10:51;100300.38;;;9.36;91.25
22605;BME280;11469;49.024;8.246;2023-04-07T07:13:22;100301.19;;;9.37;91.17
22605;BME280;11469;49.024;8.246;2023-04-07T07:15:48;100295.94;;;9.35;91.38
22605;BME280;11469;49.024;8.246;2023-04-07T07:18:14;100290.47;;;9.39;91.69
22605;BME280;11469;49.024;8.246;2023-04-07T07:20:40;100295.81;;;9.44;91.58
22605;BME280;11469;49.024;8.246;2023-04-07T07:23:05;100297.25;;;9.53;90.49
22605;BME280;11469;49.024;8.246;2023-04-07T07:25:31;100298.97;;;9.58;90.27
22605;BME280;11469;49.024;8.246;2023-04-07T07:27:57;100292.09;;;9.55;90.55
22605;BME280;11469;49.024;8.246;2023-04-07T07:30:22;100295.41;;;9.73;90.73
22605;BME280;11469;49.024;8.246;2023-04-07T07:32:49;100287.09;;;9.92;90.87
22605;BME280;11469;49.024;8.246;2023-04-07T07:35:18;100283.56;;;9.95;89.52
22605;BME280;11469;49.024;8.246;2023-04-07T07:37:43;100291.91;;;10.08;89.11
22605;BME280;11469;49.024;8.246;2023-04-07T07:40:09;100284.25;;;10.20;88.50
22605;BME280;11469;49.024;8.246;2023-04-07T07:42:35;100282.53;;;10.32;87.12
22605;BME280;11469;49.024;8.246;2023-04-07T07:45:00;100290.66;;;10.37;87.28
22605;BME280;11469;49.024;8.246;2023-04-07T07:47:26;100296.41;;;10.44;87.44
22605;BME280;11469;49.024;8.246;2023-04-07T07:49:51;100291.69;;;10.63;87.15
22605;BME280;11469;49.024;8.246;2023-04-07T07:52:17;100297.91;;;10.73;84.26
22605;BME280;11469;49.024;8.246;2023-04-07T07:54:43;100287.69;;;10.80;85.33
22605;BME280;11469;49.024;8.246;2023-04-07T07:57:08;100295.13;;;10.92;83.47
22605;BME280;11469;49.024;8.246;2023-04-07T07:59:33;100300.53;;;11.01;82.48
22605;BME280;11469;49.024;8.246;2023-04-07T08:01:59;100300.53;;;11.01;80.40
22605;BME280;11469;49.024;8.246;2023-04-07T08:04:24;100297.53;;;11.09;80.06
22605;BME280;11469;49.024;8.246;2023-04-07T08:06:50;100305.00;;;11.21;79.48
22605;BME280;11469;49.024;8.246;2023-04-07T08:09:16;100304.53;;;11.19;79.42
22605;BME280;11469;49.024;8.246;2023-04-07T08:11:42;100309.72;;;11.17;79.59
22605;BME280;11469;49.024;8.246;2023-04-07T08:14:08;100307.94;;;11.28;79.26
22605;BME280;11469;49.024;8.246;2023-04-07T08:16:33;100316.66;;;11.42;80.06
22605;BME280;11469;49.024;8.246;2023-04-07T08:18:59;100305.72;;;11.56;78.81
22605;BME280;11469;49.024;8.246;2023-04-07T08:21:24;100308.00;;;11.51;78.86
22605;BME280;11469;49.024;8.246;2023-04-07T08:23:52;100305.78;;;11.41;77.51
22605;BME280;11469;49.024;8.246;2023-04-07T08:26:18;100309.47;;;11.45;76.98
22605;BME280;11469;49.024;8.246;2023-04-07T08:28:44;100307.72;;;11.56;76.04
22605;BME280;11469;49.024;8.246;2023-04-07T08:31:09;100311.63;;;11.71;76.40
22605;BME280;11469;49.024;8.246;2023-04-07T08:33:35;100311.31;;;11.76;76.77
22605;BME280;11469;49.024;8.246;2023-04-07T08:36:00;100312.78;;;11.89;77.38
22605;BME280;11469;49.024;8.246;2023-04-07T08:38:25;100310.97;;;12.00;76.24
22605;BME280;11469;49.024;8.246;2023-04-07T08:40:58;100306.81;;;12.13;76.47
22605;BME280;11469;49.024;8.246;2023-04-07T08:43:25;100314.56;;;12.20;73.92
22605;BME280;11469;49.024;8.246;2023-04-07T08:45:53;100310.34;;;12.33;72.27
22605;BME280;11469;49.024;8.246;2023-04-07T08:48:22;100302.53;;;12.46;71.68
22605;BME280;11469;49.024;8.246;2023-04-07T08:50:50;100319.75;;;12.67;73.55
22605;BME280;11469;49.024;8.246;2023-04-07T08:53:21;100319.19;;;12.84;72.04
22605;BME280;11469;49.024;8.246;2023-04-07T08:55:47;100317.44;;;12.76;71.25
22605;BME280;11469;49.024;8.246;2023-04-07T08:58:13;100322.13;;;12.65;70.30
22605;BME280;11469;49.024;8.246;2023-04-07T09:00:40;100316.56;;;12.46;70.18
22605;BME280;11469;49.024;8.246;2023-04-07T09:03:08;100319.28;;;12.39;69.34
22605;BME280;11469;49.024;8.246;2023-04-07T09:05:34;100325.31;;;12.41;69.50
22605;BME280;11469;49.024;8.246;2023-04-07T09:08:01;100324.00;;;12.35;70.63
22605;BME280;11469;49.024;8.246;2023-04-07T09:10:27;100326.50;;;12.40;70.19
22605;BME280;11469;49.024;8.246;2023-04-07T09:12:53;100324.25;;;12.49;69.17
22605;BME280;11469;49.024;8.246;2023-04-07T09:15:18;100324.06;;;12.61;68.85
22605;BME280;11469;49.024;8.246;2023-04-07T09:17:44;100327.00;;;12.68;70.46
22605;BME280;11469;49.024;8.246;2023-04-07T09:20:10;100327.13;;;12.52;71.63
22605;BME280;11469;49.024;8.246;2023-04-07T09:22:43;100326.88;;;12.61;74.41
22605;BME280;11469;49.024;8.246;2023-04-07T09:25:18;100327.81;;;12.69;74.56
22605;BME280;11469;49.024;8.246;2023-04-07T09:28:03;100325.38;;;12.67;74.92
22605;BME280;11469;49.024;8.246;2023-04-07T09:30:33;100329.41;;;12.70;73.73
22605;BME280;11469;49.024;8.246;2023-04-07T09:32:59;100324.28;;;12.75;73.68
22605;BME280;11469;49.024;8.246;2023-04-07T09:35:25;100319.41;;;12.72;73.48
22605;BME280;11469;49.024;8.246;2023-04-07T09:38:05;100323.03;;;12.73;75.49
22605;BME280;11469;49.024;8.246;2023-04-07T09:40:31;100334.00;;;12.81;75.00
22605;BME280;11469;49.024;8.246;2023-04-07T09:42:56;100333.41;;;12.95;74.04
22605;BME280;11469;49.024;8.246;2023-04-07T09:45:27;100329.63;;;13.10;74.25
22605;BME280;11469;49.024;8.246;2023-04-07T09:47:53;100333.38;;;13.18;72.98
22605;BME280;11469;49.024;8.246;2023-04-07T09:52:58;100333.06;;;13.56;70.97
22605;BME280;11469;49.024;8.246;2023-04-07T09:55:24;100334.13;;;13.45;70.73
22605;BME280;11469;49.024;8.246;2023-04-07T09:57:50;100331.19;;;13.08;72.80
22605;BME280;11469;49.024;8.246;2023-04-07T10:00:16;100337.78;;;12.92;75.94
22605;BME280;11469;49.024;8.246;2023-04-07T10:02:42;100337.69;;;12.85;80.90
22605;BME280;11469;49.024;8.246;2023-04-07T10:05:09;100345.06;;;12.67;81.13
22605;BME280;11469;49.024;8.246;2023-04-07T10:07:35;100351.56;;;12.48;85.90
22605;BME280;11469;49.024;8.246;2023-04-07T10:10:04;100353.13;;;12.46;85.27
22605;BME280;11469;49.024;8.246;2023-04-07T10:12:33;100357.31;;;12.33;87.54
22605;BME280;11469;49.024;8.246;2023-04-07T10:15:01;100351.94;;;12.24;87.93
22605;BME280;11469;49.024;8.246;2023-04-07T10:17:27;100359.81;;;12.15;88.83
22605;BME280;11469;49.024;8.246;2023-04-07T10:19:53;100355.34;;;11.91;87.52
22605;BME280;11469;49.024;8.246;2023-04-07T10:22:22;100347.09;;;11.79;89.61
22605;BME280;11469;49.024;8.246;2023-04-07T10:25:05;100355.97;;;11.81;91.07
22605;BME280;11469;49.024;8.246;2023-04-07T10:27:35;100349.91;;;11.79;93.11
22605;BME280;11469;49.024;8.246;2023-04-07T10:30:05;100345.66;;;11.69;94.59
22605;BME280;11469;49.024;8.246;2023-04-07T10:32:31;100353.53;;;11.79;95.17
22605;BME280;11469;49.024;8.246;2023-04-07T10:34:57;100357.28;;;11.68;95.49
22605;BME280;11469;49.024;8.246;2023-04-07T10:37:24;100353.34;;;11.72;94.64
22605;BME280;11469;49.024;8.246;2023-04-07T10:40:26;100351.22;;;11.85;94.58
22605;BME280;11469;49.024;8.246;2023-04-07T10:42:52;100345.88;;;11.99;95.08
22605;BME280;11469;49.024;8.246;2023-04-07T10:48:13;100343.47;;;12.20;94.77
22605;BME280;11469;49.024;8.246;2023-04-07T10:50:39;100350.34;;;12.23;94.26
22605;BME280;11469;49.024;8.246;2023-04-07T10:53:08;100341.09;;;12.22;94.47
22605;BME280;11469;49.024;8.246;2023-04-07T10:55:44;100349.00;;;12.17;94.58
22605;BME280;11469;49.024;8.246;2023-04-07T10:58:31;100345.97;;;12.25;94.78
22605;BME280;11469;49.024;8.246;2023-04-07T11:03:27;100352.75;;;12.24;92.47
22605;BME280;11469;49.024;8.246;2023-04-07T11:06:35;100348.06;;;12.32;92.86
22605;BME280;11469;49.024;8.246;2023-04-07T11:08:53;100352.56;;;12.14;88.18
22605;BME280;11469;49.024;8.246;2023-04-07T11:11:34;100351.59;;;12.25;89.93
22605;BME280;11469;49.024;8.246;2023-04-07T11:14:01;100348.03;;;12.28;89.97
22605;BME280;11469;49.024;8.246;2023-04-07T11:16:38;100343.84;;;12.19;87.75
22605;BME280;11469;49.024;8.246;2023-04-07T11:19:03;100341.63;;;12.32;87.80
22605;BME280;11469;49.024;8.246;2023-04-07T11:21:29;100335.88;;;12.47;85.31
22605;BME280;11469;49.024;8.246;2023-04-07T11:23:54;100334.00;;;12.55;86.89
22605;BME280;11469;49.024;8.246;2023-04-07T11:26:20;100334.66;;;12.71;86.17
22605;BME280;11469;49.024;8.246;2023-04-07T11:28:46;100334.31;;;12.76;83.28
22605;BME280;11469;49.024;8.246;2023-04-07T11:31:21;100337.03;;;12.95;79.71
22605;BME280;11469;49.024;8.246;2023-04-07T11:33:50;100340.00;;;13.06;77.79
22605;BME280;11469;49.024;8.246;2023-04-07T11:36:25;100335.91;;;13.00;79.99
22605;BME280;11469;49.024;8.246;2023-04-07T11:38:50;100338.69;;;13.23;80.76
22605;BME280;11469;49.024;8.246;2023-04-07T11:41:16;100331.97;;;13.35;75.22
22605;BME280;11469;49.024;8.246;2023-04-07T11:43:42;100331.09;;;13.60;79.00
22605;BME280;11469;49.024;8.246;2023-04-07T11:46:13;100336.34;;;13.99;77.82
22605;BME280;11469;49.024;8.246;2023-04-07T11:48:40;100335.63;;;14.06;74.27
22605;BME280;11469;49.024;8.246;2023-04-07T11:51:06;100334.16;;;14.22;73.26
22605;BME280;11469;49.024;8.246;2023-04-07T11:53:39;100328.00;;;14.50;74.99
22605;BME280;11469;49.024;8.246;2023-04-07T11:56:11;100333.34;;;14.63;69.80
22605;BME280;11469;49.024;8.246;2023-04-07T11:58:53;100329.03;;;14.35;71.93
22605;BME280;11469;49.024;8.246;2023-04-07T12:01:20;100333.00;;;14.27;70.64
22605;BME280;11469;49.024;8.246;2023-04-07T12:03:57;100334.84;;;14.09;70.84
22605;BME280;11469;49.024;8.246;2023-04-07T12:06:34;100333.81;;;13.87;73.94
22605;BME280;11469;49.024;8.246;2023-04-07T12:09:00;100339.28;;;13.73;75.90
22605;BME280;11469;49.024;8.246;2023-04-07T12:11:26;100344.28;;;13.53;74.73
22605;BME280;11469;49.024;8.246;2023-04-07T12:13:52;100346.56;;;13.44;78.67
22605;BME280;11469;49.024;8.246;2023-04-07T12:16:19;100343.59;;;13.33;75.89
22605;BME280;11469;49.024;8.246;2023-04-07T12:18:45;100344.47;;;13.37;77.88
22605;BME280;11469;49.024;8.246;2023-04-07T12:21:10;100356.28;;;13.16;70.23
22605;BME280;11469;49.024;8.246;2023-04-07T12:23:35;100343.56;;;13.03;70.23
22605;BME280;11469;49.024;8.246;2023-04-07T12:26:01;100355.59;;;13.00;76.32
22605;BME280;11469;49.024;8.246;2023-04-07T12:28:27;100353.03;;;12.91;70.92
22605;BME280;11469;49.024;8.246;2023-04-07T12:30:52;100357.38;;;12.85;72.49
22605;BME280;11469;49.024;8.246;2023-04-07T12:33:18;100346.94;;;12.86;77.41
22605;BME280;11469;49.024;8.246;2023-04-07T12:35:43;100355.75;;;12.58;84.86
22605;BME280;11469;49.024;8.246;2023-04-07T12:38:09;100352.44;;;12.52;85.55
22605;BME280;11469;49.024;8.246;2023-04-07T12:40:34;100342.63;;;12.43;87.91
22605;BME280;11469;49.024;8.246;2023-04-07T12:43:00;100350.88;;;12.32;86.78
22605;BME280;11469;49.024;8.246;2023-04-07T12:45:26;100349.97;;;12.24;88.32
22605;BME280;11469;49.024;8.246;2023-04-07T12:47:54;100350.41;;;12.26;89.15
22605;BME280;11469;49.024;8.246;2023-04-07T12:50:19;100353.69;;;12.32;86.04
22605;BME280;11469;49.024;8.246;2023-04-07T12:52:45;100355.88;;;12.19;82.11
22605;BME280;11469;49.024;8.246;2023-04-07T12:55:12;100366.78;;;11.82;87.59
22605;BME280;11469;49.024;8.246;2023-04-07T12:57:38;100371.16;;;11.60;90.85
22605;BME280;11469;49.024;8.246;2023-04-07T13:00:04;100376.03;;;11.44;93.84
22605;BME280;11469;49.024;8.246;2023-04-07T13:02:30;100375.59;;;11.07;94.70